sensor_id;sensor_type;location;lat;lon;timestamp;P1;durP1;ratioP1;P2;durP2;ratioP2
61108;SDS011;46995;55.740;37.402;2023-02-28T00:00:22;10.57;;;5.65;;
61108;SDS011;46995;55.740;37.402;2023-02-28T00:02:49;12.48;;;5.90;;
61108;SDS011;46995;55.740;37.402;2023-02-28T00:05:16;14.35;;;6.47;;
61108;SDS011;46995;55.740;37.402;2023-02-28T00:07:45;17.80;;;7.05;;
61108;SDS011;46995;55.740;37.402;2023-02-28T00:10:13;9.00;;;4.70;;
61108;SDS011;46995;55.740;37.402;2023-02-28T00:12:41;11.68;;;6.13;;
61108;SDS011;46995;55.740;37.402;2023-02-28T00:15:07;17.15;;;6.65;;
61108;SDS011;46995;55.740;37.402;2023-02-28T00:17:35;10.68;;;5.88;;
61108;SDS011;46995;55.740;37.402;2023-02-28T00:20:02;13.45;;;6.55;;
61108;SDS011;46995;55.740;37.402;2023-02-28T00:22:29;13.68;;;5.88;;
61108;SDS011;46995;55.740;37.402;2023-02-28T00:27:22;10.55;;;4.72;;
61108;SDS011;46995;55.740;37.402;2023-02-28T00:29:50;13.45;;;5.22;;
61108;SDS011;46995;55.740;37.402;2023-02-28T00:32:15;14.00;;;5.68;;
61108;SDS011;46995;55.740;37.402;2023-02-28T00:34:41;14.48;;;6.25;;
61108;SDS011;46995;55.740;37.402;2023-02-28T00:37:08;14.45;;;6.97;;
61108;SDS011;46995;55.740;37.402;2023-02-28T00:39:37;12.30;;;5.38;;
61108;SDS011;46995;55.740;37.402;2023-02-28T00:42:04;11.77;;;6.50;;
61108;SDS011;46995;55.740;37.402;2023-02-28T00:44:31;13.45;;;6.43;;
61108;SDS011;46995;55.740;37.402;2023-02-28T00:46:57;9.98;;;5.30;;
61108;SDS011;46995;55.740;37.402;2023-02-28T00:49:26;13.55;;;6.32;;
61108;SDS011;46995;55.740;37.402;2023-02-28T00:51:53;14.75;;;6.63;;
61108;SDS011;46995;55.740;37.402;2023-02-28T00:54:21;14.10;;;6.57;;
61108;SDS011;46995;55.740;37.402;2023-02-28T00:56:50;11.27;;;5.95;;
61108;SDS011;46995;55.740;37.402;2023-02-28T00:59:16;13.50;;;6.00;;
61108;SDS011;46995;55.740;37.402;2023-02-28T01:04:11;11.93;;;5.82;;
61108;SDS011;46995;55.740;37.402;2023-02-28T01:06:41;16.38;;;6.43;;
61108;SDS011;46995;55.740;37.402;2023-02-28T01:09:10;12.13;;;5.22;;
61108;SDS011;46995;55.740;37.402;2023-02-28T01:11:36;16.42;;;5.82;;
61108;SDS011;46995;55.740;37.402;2023-02-28T01:14:02;11.45;;;5.97;;
61108;SDS011;46995;55.740;37.402;2023-02-28T01:16:29;11.17;;;5.50;;
61108;SDS011;46995;55.740;37.402;2023-02-28T01:18:55;12.90;;;6.18;;
61108;SDS011;46995;55.740;37.402;2023-02-28T01:21:23;11.70;;;5.72;;
61108;SDS011;46995;55.740;37.402;2023-02-28T01:23:49;12.70;;;5.88;;
61108;SDS011;46995;55.740;37.402;2023-02-28T01:26:16;15.32;;;6.57;;
61108;SDS011;46995;55.740;37.402;2023-02-28T01:28:46;14.20;;;6.80;;
61108;SDS011;46995;55.740;37.402;2023-02-28T01:31:13;13.55;;;5.22;;
61108;SDS011;46995;55.740;37.402;2023-02-28T01:33:39;16.67;;;6.38;;
61108;SDS011;46995;55.740;37.402;2023-02-28T01:36:09;11.90;;;5.70;;
61108;SDS011;46995;55.740;37.402;2023-02-28T01:38:37;13.48;;;6.00;;
61108;SDS011;46995;55.740;37.402;2023-02-28T01:41:03;13.13;;;6.05;;
61108;SDS011;46995;55.740;37.402;2023-02-28T01:43:31;11.07;;;5.70;;
61108;SDS011;46995;55.740;37.402;2023-02-28T01:46:17;14.43;;;6.47;;
61108;SDS011;46995;55.740;37.402;2023-02-28T01:48:48;13.45;;;6.60;;
61108;SDS011;46995;55.740;37.402;2023-02-28T01:51:19;12.88;;;5.93;;
61108;SDS011;46995;55.740;37.402;2023-02-28T01:53:55;12.10;;;6.15;;
61108;SDS011;46995;55.740;37.402;2023-02-28T01:56:26;11.48;;;5.18;;
61108;SDS011;46995;55.740;37.402;2023-02-28T01:58:55;12.90;;;5.95;;
61108;SDS011;46995;55.740;37.402;2023-02-28T02:01:22;13.65;;;5.28;;
61108;SDS011;46995;55.740;37.402;2023-02-28T02:03:54;10.98;;;5.10;;
61108;SDS011;46995;55.740;37.402;2023-02-28T02:06:25;16.48;;;6.40;;
61108;SDS011;46995;55.740;37.402;2023-02-28T02:09:07;12.80;;;6.05;;
61108;SDS011;46995;55.740;37.402;2023-02-28T02:11:34;12.90;;;6.28;;
61108;SDS011;46995;55.740;37.402;2023-02-28T02:16:34;13.88;;;5.35;;
61108;SDS011;46995;55.740;37.402;2023-02-28T02:19:43;11.20;;;5.18;;
61108;SDS011;46995;55.740;37.402;2023-02-28T02:25:12;8.68;;;4.80;;
61108;SDS011;46995;55.740;37.402;2023-02-28T02:36:59;13.50;;;6.07;;
61108;SDS011;46995;55.740;37.402;2023-02-28T02:42:57;20.17;;;6.70;;
61108;SDS011;46995;55.740;37.402;2023-02-28T02:45:38;18.15;;;7.32;;
61108;SDS011;46995;55.740;37.402;2023-02-28T02:48:24;23.15;;;8.20;;
61108;SDS011;46995;55.740;37.402;2023-02-28T02:51:00;16.15;;;6.53;;
61108;SDS011;46995;55.740;37.402;2023-02-28T02:53:34;20.40;;;8.45;;
61108;SDS011;46995;55.740;37.402;2023-02-28T02:56:04;16.38;;;8.80;;
61108;SDS011;46995;55.740;37.402;2023-02-28T02:58:33;23.20;;;8.48;;
61108;SDS011;46995;55.740;37.402;2023-02-28T03:01:12;15.27;;;6.82;;
61108;SDS011;46995;55.740;37.402;2023-02-28T03:03:42;14.65;;;7.00;;
61108;SDS011;46995;55.740;37.402;2023-02-28T03:06:09;20.38;;;8.20;;
61108;SDS011;46995;55.740;37.402;2023-02-28T03:08:36;18.77;;;8.15;;
61108;SDS011;46995;55.740;37.402;2023-02-28T03:11:04;17.77;;;7.30;;
61108;SDS011;46995;55.740;37.402;2023-02-28T03:27:09;14.67;;;6.43;;
61108;SDS011;46995;55.740;37.402;2023-02-28T03:29:44;16.95;;;6.70;;
61108;SDS011;46995;55.740;37.402;2023-02-28T03:34:51;16.27;;;6.70;;
61108;SDS011;46995;55.740;37.402;2023-02-28T03:37:24;14.80;;;6.13;;
61108;SDS011;46995;55.740;37.402;2023-02-28T03:40:02;11.60;;;5.22;;
61108;SDS011;46995;55.740;37.402;2023-02-28T03:42:39;13.65;;;5.80;;
61108;SDS011;46995;55.740;37.402;2023-02-28T03:45:15;14.27;;;6.65;;
61108;SDS011;46995;55.740;37.402;2023-02-28T03:47:50;10.07;;;4.57;;
61108;SDS011;46995;55.740;37.402;2023-02-28T03:50:39;13.43;;;6.13;;
61108;SDS011;46995;55.740;37.402;2023-02-28T03:55:47;13.35;;;5.70;;
61108;SDS011;46995;55.740;37.402;2023-02-28T03:58:22;17.25;;;6.68;;
61108;SDS011;46995;55.740;37.402;2023-02-28T04:01:05;16.42;;;5.43;;
61108;SDS011;46995;55.740;37.402;2023-02-28T04:03:38;14.68;;;5.57;;
61108;SDS011;46995;55.740;37.402;2023-02-28T04:06:23;12.35;;;5.93;;
61108;SDS011;46995;55.740;37.402;2023-02-28T04:08:51;11.35;;;5.05;;
61108;SDS011;46995;55.740;37.402;2023-02-28T04:11:21;12.48;;;5.03;;
61108;SDS011;46995;55.740;37.402;2023-02-28T04:13:50;10.27;;;5.13;;
61108;SDS011;46995;55.740;37.402;2023-02-28T04:16:20;13.73;;;5.10;;
61108;SDS011;46995;55.740;37.402;2023-02-28T04:18:46;14.77;;;5.38;;
61108;SDS011;46995;55.740;37.402;2023-02-28T04:21:12;11.50;;;5.57;;
61108;SDS011;46995;55.740;37.402;2023-02-28T04:23:46;11.45;;;5.53;;
61108;SDS011;46995;55.740;37.402;2023-02-28T04:26:12;11.18;;;4.88;;
61108;SDS011;46995;55.740;37.402;2023-02-28T04:28:41;12.48;;;5.30;;
61108;SDS011;46995;55.740;37.402;2023-02-28T04:31:14;15.07;;;5.78;;
61108;SDS011;46995;55.740;37.402;2023-02-28T04:33:48;18.13;;;4.47;;
61108;SDS011;46995;55.740;37.402;2023-02-28T04:36:14;14.20;;;6.38;;
61108;SDS011;46995;55.740;37.402;2023-02-28T04:38:46;18.90;;;6.45;;
61108;SDS011;46995;55.740;37.402;2023-02-28T04:41:13;11.57;;;4.00;;
61108;SDS011;46995;55.740;37.402;2023-02-28T04:43:39;12.52;;;5.32;;
61108;SDS011;46995;55.740;37.402;2023-02-28T04:46:05;14.38;;;4.88;;
61108;SDS011;46995;55.740;37.402;2023-02-28T04:48:39;10.95;;;4.32;;
61108;SDS011;46995;55.740;37.402;2023-02-28T04:51:15;15.40;;;5.53;;
61108;SDS011;46995;55.740;37.402;2023-02-28T04:54:03;10.65;;;4.38;;
61108;SDS011;46995;55.740;37.402;2023-02-28T04:56:37;10.07;;;4.88;;
61108;SDS011;46995;55.740;37.402;2023-02-28T04:59:03;14.63;;;5.13;;
61108;SDS011;46995;55.740;37.402;2023-02-28T05:01:31;11.90;;;5.45;;
61108;SDS011;46995;55.740;37.402;2023-02-28T05:04:02;10.90;;;5.00;;
61108;SDS011;46995;55.740;37.402;2023-02-28T05:06:31;12.13;;;5.10;;
61108;SDS011;46995;55.740;37.402;2023-02-28T05:08:58;11.40;;;4.30;;
61108;SDS011;46995;55.740;37.402;2023-02-28T05:11:25;12.50;;;4.95;;
61108;SDS011;46995;55.740;37.402;2023-02-28T05:13:51;12.00;;;5.45;;
61108;SDS011;46995;55.740;37.402;2023-02-28T05:16:19;12.15;;;5.22;;
61108;SDS011;46995;55.740;37.402;2023-02-28T05:18:45;16.83;;;6.35;;
61108;SDS011;46995;55.740;37.402;2023-02-28T05:23:54;14.05;;;5.18;;
61108;SDS011;46995;55.740;37.402;2023-02-28T05:26:24;14.55;;;5.07;;
61108;SDS011;46995;55.740;37.402;2023-02-28T05:28:51;11.00;;;4.93;;
61108;SDS011;46995;55.740;37.402;2023-02-28T05:31:17;10.32;;;4.53;;
61108;SDS011;46995;55.740;37.402;2023-02-28T05:33:57;9.57;;;4.47;;
61108;SDS011;46995;55.740;37.402;2023-02-28T05:36:23;13.02;;;5.18;;
61108;SDS011;46995;55.740;37.402;2023-02-28T05:38:50;16.38;;;5.20;;
61108;SDS011;46995;55.740;37.402;2023-02-28T05:43:44;14.65;;;5.55;;
61108;SDS011;46995;55.740;37.402;2023-02-28T05:46:12;12.25;;;6.03;;
61108;SDS011;46995;55.740;37.402;2023-02-28T05:48:39;13.40;;;5.20;;
61108;SDS011;46995;55.740;37.402;2023-02-28T05:51:08;9.13;;;4.93;;
61108;SDS011;46995;55.740;37.402;2023-02-28T05:53:35;12.00;;;5.30;;
61108;SDS011;46995;55.740;37.402;2023-02-28T05:56:01;13.23;;;6.32;;
61108;SDS011;46995;55.740;37.402;2023-02-28T05:58:28;15.75;;;5.13;;
61108;SDS011;46995;55.740;37.402;2023-02-28T06:01:00;12.20;;;4.95;;
61108;SDS011;46995;55.740;37.402;2023-02-28T06:03:50;11.18;;;4.47;;
61108;SDS011;46995;55.740;37.402;2023-02-28T06:06:16;11.00;;;5.45;;
61108;SDS011;46995;55.740;37.402;2023-02-28T06:08:58;16.50;;;4.85;;
61108;SDS011;46995;55.740;37.402;2023-02-28T06:11:54;12.68;;;5.15;;
61108;SDS011;46995;55.740;37.402;2023-02-28T06:14:28;13.50;;;5.50;;
61108;SDS011;46995;55.740;37.402;2023-02-28T06:18:02;13.85;;;4.43;;
61108;SDS011;46995;55.740;37.402;2023-02-28T06:20:34;12.80;;;6.20;;
61108;SDS011;46995;55.740;37.402;2023-02-28T06:23:01;10.90;;;4.50;;
61108;SDS011;46995;55.740;37.402;2023-02-28T06:25:27;11.15;;;4.85;;
61108;SDS011;46995;55.740;37.402;2023-02-28T06:27:56;12.30;;;4.53;;
61108;SDS011;46995;55.740;37.402;2023-02-28T06:30:22;8.50;;;4.03;;
61108;SDS011;46995;55.740;37.402;2023-02-28T06:32:50;7.45;;;3.55;;
61108;SDS011;46995;55.740;37.402;2023-02-28T06:35:17;8.93;;;4.17;;
61108;SDS011;46995;55.740;37.402;2023-02-28T06:37:43;7.78;;;4.03;;
61108;SDS011;46995;55.740;37.402;2023-02-28T06:40:11;8.38;;;3.90;;
61108;SDS011;46995;55.740;37.402;2023-02-28T06:42:38;6.55;;;3.45;;
61108;SDS011;46995;55.740;37.402;2023-02-28T06:45:04;7.03;;;3.75;;
61108;SDS011;46995;55.740;37.402;2023-02-28T06:47:34;5.70;;;3.28;;
61108;SDS011;46995;55.740;37.402;2023-02-28T06:52:27;7.38;;;3.67;;
61108;SDS011;46995;55.740;37.402;2023-02-28T06:54:54;7.85;;;3.58;;
61108;SDS011;46995;55.740;37.402;2023-02-28T06:57:27;7.80;;;3.55;;
61108;SDS011;46995;55.740;37.402;2023-02-28T06:59:57;9.75;;;3.63;;
61108;SDS011;46995;55.740;37.402;2023-02-28T07:02:24;7.80;;;3.53;;
61108;SDS011;46995;55.740;37.402;2023-02-28T07:04:50;10.38;;;3.70;;
61108;SDS011;46995;55.740;37.402;2023-02-28T07:07:16;7.03;;;3.53;;
61108;SDS011;46995;55.740;37.402;2023-02-28T07:09:41;6.07;;;3.10;;
61108;SDS011;46995;55.740;37.402;2023-02-28T07:12:07;8.88;;;3.83;;
61108;SDS011;46995;55.740;37.402;2023-02-28T07:14:33;7.82;;;3.70;;
61108;SDS011;46995;55.740;37.402;2023-02-28T07:16:59;4.47;;;2.53;;
61108;SDS011;46995;55.740;37.402;2023-02-28T07:19:29;8.02;;;3.75;;
61108;SDS011;46995;55.740;37.402;2023-02-28T07:21:55;10.45;;;3.97;;
61108;SDS011;46995;55.740;37.402;2023-02-28T07:24:21;8.55;;;3.85;;
61108;SDS011;46995;55.740;37.402;2023-02-28T07:26:51;8.15;;;4.00;;
61108;SDS011;46995;55.740;37.402;2023-02-28T07:29:17;12.02;;;3.75;;
61108;SDS011;46995;55.740;37.402;2023-02-28T07:31:43;9.70;;;3.83;;
61108;SDS011;46995;55.740;37.402;2023-02-28T07:34:08;9.93;;;3.58;;
61108;SDS011;46995;55.740;37.402;2023-02-28T07:36:34;11.13;;;4.05;;
61108;SDS011;46995;55.740;37.402;2023-02-28T07:39:00;7.30;;;3.75;;
61108;SDS011;46995;55.740;37.402;2023-02-28T07:41:26;9.93;;;4.20;;
61108;SDS011;46995;55.740;37.402;2023-02-28T07:43:55;8.45;;;3.70;;
61108;SDS011;46995;55.740;37.402;2023-02-28T07:46:25;8.63;;;4.30;;
61108;SDS011;46995;55.740;37.402;2023-02-28T07:49:00;7.95;;;4.00;;
61108;SDS011;46995;55.740;37.402;2023-02-28T07:51:32;11.18;;;4.10;;
61108;SDS011;46995;55.740;37.402;2023-02-28T07:53:58;9.88;;;4.43;;
61108;SDS011;46995;55.740;37.402;2023-02-28T07:56:25;7.97;;;3.78;;
61108;SDS011;46995;55.740;37.402;2023-02-28T07:58:51;7.82;;;3.38;;
61108;SDS011;46995;55.740;37.402;2023-02-28T08:01:17;9.55;;;4.15;;
61108;SDS011;46995;55.740;37.402;2023-02-28T08:03:45;8.13;;;4.20;;
61108;SDS011;46995;55.740;37.402;2023-02-28T08:06:30;7.72;;;3.83;;
61108;SDS011;46995;55.740;37.402;2023-02-28T08:08:56;8.63;;;3.90;;
61108;SDS011;46995;55.740;37.402;2023-02-28T08:11:24;8.27;;;3.40;;
61108;SDS011;46995;55.740;37.402;2023-02-28T08:13:50;9.73;;;3.67;;
61108;SDS011;46995;55.740;37.402;2023-02-28T08:16:16;8.02;;;3.55;;
61108;SDS011;46995;55.740;37.402;2023-02-28T08:18:53;6.45;;;3.38;;
61108;SDS011;46995;55.740;37.402;2023-02-28T08:21:19;8.32;;;3.70;;
61108;SDS011;46995;55.740;37.402;2023-02-28T08:23:49;7.93;;;3.88;;
61108;SDS011;46995;55.740;37.402;2023-02-28T08:26:19;8.63;;;3.88;;
61108;SDS011;46995;55.740;37.402;2023-02-28T08:28:45;9.95;;;4.13;;
61108;SDS011;46995;55.740;37.402;2023-02-28T08:31:12;8.00;;;3.70;;
61108;SDS011;46995;55.740;37.402;2023-02-28T08:33:42;9.10;;;3.78;;
61108;SDS011;46995;55.740;37.402;2023-02-28T08:36:10;8.20;;;3.63;;
61108;SDS011;46995;55.740;37.402;2023-02-28T08:38:37;6.05;;;3.75;;
61108;SDS011;46995;55.740;37.402;2023-02-28T08:41:05;9.45;;;3.58;;
61108;SDS011;46995;55.740;37.402;2023-02-28T08:43:36;8.85;;;3.88;;
61108;SDS011;46995;55.740;37.402;2023-02-28T08:46:06;9.00;;;3.63;;
61108;SDS011;46995;55.740;37.402;2023-02-28T08:48:36;6.47;;;2.90;;
61108;SDS011;46995;55.740;37.402;2023-02-28T08:51:08;9.13;;;3.40;;
61108;SDS011;46995;55.740;37.402;2023-02-28T08:53:36;8.90;;;3.58;;
61108;SDS011;46995;55.740;37.402;2023-02-28T08:58:34;7.32;;;2.90;;
61108;SDS011;46995;55.740;37.402;2023-02-28T09:01:00;6.25;;;3.13;;
61108;SDS011;46995;55.740;37.402;2023-02-28T09:03:32;7.53;;;3.10;;
61108;SDS011;46995;55.740;37.402;2023-02-28T09:05:59;6.45;;;3.30;;
61108;SDS011;46995;55.740;37.402;2023-02-28T09:08:27;7.65;;;3.88;;
61108;SDS011;46995;55.740;37.402;2023-02-28T09:10:58;11.80;;;3.88;;
61108;SDS011;46995;55.740;37.402;2023-02-28T09:13:24;7.57;;;2.63;;
61108;SDS011;46995;55.740;37.402;2023-02-28T09:18:49;6.43;;;3.22;;
61108;SDS011;46995;55.740;37.402;2023-02-28T09:21:16;6.65;;;3.83;;
61108;SDS011;46995;55.740;37.402;2023-02-28T09:23:44;6.65;;;3.08;;
61108;SDS011;46995;55.740;37.402;2023-02-28T09:28:52;5.75;;;3.05;;
61108;SDS011;46995;55.740;37.402;2023-02-28T09:31:23;6.72;;;2.92;;
61108;SDS011;46995;55.740;37.402;2023-02-28T09:33:52;7.90;;;3.30;;
61108;SDS011;46995;55.740;37.402;2023-02-28T09:36:25;7.15;;;2.55;;
61108;SDS011;46995;55.740;37.402;2023-02-28T09:38:53;11.00;;;3.08;;
61108;SDS011;46995;55.740;37.402;2023-02-28T09:41:20;5.97;;;3.10;;
61108;SDS011;46995;55.740;37.402;2023-02-28T09:44:01;6.38;;;3.10;;
61108;SDS011;46995;55.740;37.402;2023-02-28T09:46:39;5.55;;;2.80;;
61108;SDS011;46995;55.740;37.402;2023-02-28T09:49:13;7.82;;;3.42;;
61108;SDS011;46995;55.740;37.402;2023-02-28T09:51:46;7.00;;;3.38;;
61108;SDS011;46995;55.740;37.402;2023-02-28T09:57:38;7.43;;;3.28;;
61108;SDS011;46995;55.740;37.402;2023-02-28T10:00:13;8.15;;;3.63;;
61108;SDS011;46995;55.740;37.402;2023-02-28T10:05:29;8.85;;;2.88;;
61108;SDS011;46995;55.740;37.402;2023-02-28T10:08:17;6.32;;;3.20;;
61108;SDS011;46995;55.740;37.402;2023-02-28T10:11:12;7.35;;;3.40;;
61108;SDS011;46995;55.740;37.402;2023-02-28T10:16:41;6.82;;;2.88;;
61108;SDS011;46995;55.740;37.402;2023-02-28T10:21:57;8.07;;;3.25;;
61108;SDS011;46995;55.740;37.402;2023-02-28T10:27:17;9.95;;;3.05;;
61108;SDS011;46995;55.740;37.402;2023-02-28T10:29:49;7.95;;;2.75;;
61108;SDS011;46995;55.740;37.402;2023-02-28T10:32:21;7.50;;;3.47;;
61108;SDS011;46995;55.740;37.402;2023-02-28T10:37:40;6.57;;;3.15;;
61108;SDS011;46995;55.740;37.402;2023-02-28T10:40:30;6.40;;;3.08;;
61108;SDS011;46995;55.740;37.402;2023-02-28T10:43:06;7.30;;;3.20;;
61108;SDS011;46995;55.740;37.402;2023-02-28T10:45:58;6.70;;;3.17;;
61108;SDS011;46995;55.740;37.402;2023-02-28T10:48:35;7.55;;;3.25;;
61108;SDS011;46995;55.740;37.402;2023-02-28T10:51:07;4.80;;;2.78;;
61108;SDS011;46995;55.740;37.402;2023-02-28T10:56:06;6.80;;;3.30;;
61108;SDS011;46995;55.740;37.402;2023-02-28T11:01:25;5.90;;;3.00;;
61108;SDS011;46995;55.740;37.402;2023-02-28T11:04:16;8.05;;;3.65;;
61108;SDS011;46995;55.740;37.402;2023-02-28T11:07:10;8.82;;;3.58;;
61108;SDS011;46995;55.740;37.402;2023-02-28T11:09:48;5.68;;;3.10;;
61108;SDS011;46995;55.740;37.402;2023-02-28T11:14:59;9.90;;;3.88;;
61108;SDS011;46995;55.740;37.402;2023-02-28T11:17:30;7.55;;;3.78;;
61108;SDS011;46995;55.740;37.402;2023-02-28T11:20:01;12.30;;;4.25;;
61108;SDS011;46995;55.740;37.402;2023-02-28T11:22:33;9.77;;;4.18;;
61108;SDS011;46995;55.740;37.402;2023-02-28T11:25:07;9.00;;;4.00;;
61108;SDS011;46995;55.740;37.402;2023-02-28T11:27:44;7.45;;;3.80;;
61108;SDS011;46995;55.740;37.402;2023-02-28T11:32:52;6.72;;;3.45;;
61108;SDS011;46995;55.740;37.402;2023-02-28T11:35:23;8.18;;;3.85;;
61108;SDS011;46995;55.740;37.402;2023-02-28T11:37:52;8.38;;;3.67;;
61108;SDS011;46995;55.740;37.402;2023-02-28T11:40:21;8.77;;;3.80;;
61108;SDS011;46995;55.740;37.402;2023-02-28T11:46:04;10.23;;;3.72;;
61108;SDS011;46995;55.740;37.402;2023-02-28T11:48:43;7.55;;;3.97;;
61108;SDS011;46995;55.740;37.402;2023-02-28T11:51:39;7.10;;;3.92;;
61108;SDS011;46995;55.740;37.402;2023-02-28T12:00:02;9.20;;;3.88;;
61108;SDS011;46995;55.740;37.402;2023-02-28T12:02:48;8.95;;;4.13;;
61108;SDS011;46995;55.740;37.402;2023-02-28T12:10:52;6.05;;;3.80;;
61108;SDS011;46995;55.740;37.402;2023-02-28T12:13:36;7.22;;;3.88;;
61108;SDS011;46995;55.740;37.402;2023-02-28T12:16:18;9.35;;;4.20;;
61108;SDS011;46995;55.740;37.402;2023-02-28T12:26:51;9.60;;;4.55;;
61108;SDS011;46995;55.740;37.402;2023-02-28T12:29:20;8.02;;;4.88;;
61108;SDS011;46995;55.740;37.402;2023-02-28T12:32:03;8.93;;;4.78;;
61108;SDS011;46995;55.740;37.402;2023-02-28T12:34:47;13.07;;;7.05;;
61108;SDS011;46995;55.740;37.402;2023-02-28T12:37:28;8.55;;;4.43;;
61108;SDS011;46995;55.740;37.402;2023-02-28T12:40:03;7.53;;;3.58;;
61108;SDS011;46995;55.740;37.402;2023-02-28T12:42:37;9.55;;;4.53;;
61108;SDS011;46995;55.740;37.402;2023-02-28T12:45:10;9.15;;;4.70;;
61108;SDS011;46995;55.740;37.402;2023-02-28T12:47:44;9.27;;;4.43;;
61108;SDS011;46995;55.740;37.402;2023-02-28T12:50:14;7.50;;;3.83;;
61108;SDS011;46995;55.740;37.402;2023-02-28T12:52:47;7.20;;;4.27;;
61108;SDS011;46995;55.740;37.402;2023-02-28T12:55:39;10.05;;;4.90;;
61108;SDS011;46995;55.740;37.402;2023-02-28T12:58:11;8.77;;;4.22;;
61108;SDS011;46995;55.740;37.402;2023-02-28T13:06:34;8.77;;;3.97;;
61108;SDS011;46995;55.740;37.402;2023-02-28T13:09:39;6.75;;;3.70;;
61108;SDS011;46995;55.740;37.402;2023-02-28T13:12:15;10.23;;;4.57;;
61108;SDS011;46995;55.740;37.402;2023-02-28T13:14:43;7.35;;;3.80;;
61108;SDS011;46995;55.740;37.402;2023-02-28T13:17:10;7.97;;;3.85;;
61108;SDS011;46995;55.740;37.402;2023-02-28T13:19:40;6.80;;;3.53;;
61108;SDS011;46995;55.740;37.402;2023-02-28T13:22:17;6.55;;;3.70;;
61108;SDS011;46995;55.740;37.402;2023-02-28T13:27:52;7.22;;;3.80;;
61108;SDS011;46995;55.740;37.402;2023-02-28T13:44:00;7.78;;;3.67;;
61108;SDS011;46995;55.740;37.402;2023-02-28T13:51:51;7.65;;;3.28;;
61108;SDS011;46995;55.740;37.402;2023-02-28T14:05:38;6.20;;;3.28;;
61108;SDS011;46995;55.740;37.402;2023-02-28T14:08:06;6.18;;;3.42;;
61108;SDS011;46995;55.740;37.402;2023-02-28T14:10:49;6.20;;;3.60;;
61108;SDS011;46995;55.740;37.402;2023-02-28T14:16:10;6.30;;;3.60;;
61108;SDS011;46995;55.740;37.402;2023-02-28T14:18:42;7.00;;;3.20;;
61108;SDS011;46995;55.740;37.402;2023-02-28T14:21:20;6.85;;;3.65;;
61108;SDS011;46995;55.740;37.402;2023-02-28T14:30:10;7.32;;;3.58;;
61108;SDS011;46995;55.740;37.402;2023-02-28T14:38:24;5.22;;;3.17;;
61108;SDS011;46995;55.740;37.402;2023-02-28T14:40:54;7.63;;;3.58;;
61108;SDS011;46995;55.740;37.402;2023-02-28T14:43:24;6.95;;;3.67;;
61108;SDS011;46995;55.740;37.402;2023-02-28T14:45:53;8.15;;;3.67;;
61108;SDS011;46995;55.740;37.402;2023-02-28T14:48:24;5.75;;;3.67;;
61108;SDS011;46995;55.740;37.402;2023-02-28T14:50:56;7.15;;;3.88;;
61108;SDS011;46995;55.740;37.402;2023-02-28T14:53:25;7.25;;;3.47;;
61108;SDS011;46995;55.740;37.402;2023-02-28T14:55:53;6.35;;;3.67;;
61108;SDS011;46995;55.740;37.402;2023-02-28T14:58:24;7.35;;;3.75;;
61108;SDS011;46995;55.740;37.402;2023-02-28T15:00:55;8.65;;;4.00;;
61108;SDS011;46995;55.740;37.402;2023-02-28T15:03:44;6.28;;;3.92;;
61108;SDS011;46995;55.740;37.402;2023-02-28T15:06:14;6.18;;;3.95;;
61108;SDS011;46995;55.740;37.402;2023-02-28T15:08:44;9.15;;;4.07;;
61108;SDS011;46995;55.740;37.402;2023-02-28T15:11:14;8.70;;;4.22;;
61108;SDS011;46995;55.740;37.402;2023-02-28T15:13:48;8.38;;;4.57;;
61108;SDS011;46995;55.740;37.402;2023-02-28T15:16:17;8.00;;;4.57;;
61108;SDS011;46995;55.740;37.402;2023-02-28T15:19:06;7.90;;;4.00;;
61108;SDS011;46995;55.740;37.402;2023-02-28T15:21:43;6.95;;;4.53;;
61108;SDS011;46995;55.740;37.402;2023-02-28T15:24:14;6.78;;;4.22;;
61108;SDS011;46995;55.740;37.402;2023-02-28T15:26:51;6.38;;;3.85;;
61108;SDS011;46995;55.740;37.402;2023-02-28T15:29:23;7.05;;;4.22;;
61108;SDS011;46995;55.740;37.402;2023-02-28T15:31:55;9.25;;;4.20;;
61108;SDS011;46995;55.740;37.402;2023-02-28T15:39:57;7.57;;;3.33;;
61108;SDS011;46995;55.740;37.402;2023-02-28T15:43:05;6.78;;;4.07;;
61108;SDS011;46995;55.740;37.402;2023-02-28T15:45:41;7.07;;;3.65;;
61108;SDS011;46995;55.740;37.402;2023-02-28T15:48:14;5.57;;;3.20;;
61108;SDS011;46995;55.740;37.402;2023-02-28T15:51:17;8.65;;;3.63;;
61108;SDS011;46995;55.740;37.402;2023-02-28T15:54:08;6.95;;;3.13;;
61108;SDS011;46995;55.740;37.402;2023-02-28T15:56:44;7.15;;;3.50;;
61108;SDS011;46995;55.740;37.402;2023-02-28T15:59:15;6.55;;;3.35;;
61108;SDS011;46995;55.740;37.402;2023-02-28T16:02:01;6.50;;;3.63;;
61108;SDS011;46995;55.740;37.402;2023-02-28T16:04:29;6.00;;;3.35;;
61108;SDS011;46995;55.740;37.402;2023-02-28T16:09:26;6.75;;;3.60;;
61108;SDS011;46995;55.740;37.402;2023-02-28T16:11:55;6.93;;;3.25;;
61108;SDS011;46995;55.740;37.402;2023-02-28T16:14:26;4.75;;;3.28;;
61108;SDS011;46995;55.740;37.402;2023-02-28T16:17:05;8.15;;;3.65;;
61108;SDS011;46995;55.740;37.402;2023-02-28T16:19:34;7.70;;;3.53;;
61108;SDS011;46995;55.740;37.402;2023-02-28T16:22:03;6.00;;;3.28;;
61108;SDS011;46995;55.740;37.402;2023-02-28T16:24:29;5.05;;;2.95;;
61108;SDS011;46995;55.740;37.402;2023-02-28T16:26:55;5.65;;;2.95;;
61108;SDS011;46995;55.740;37.402;2023-02-28T16:29:23;4.72;;;2.78;;
61108;SDS011;46995;55.740;37.402;2023-02-28T16:31:52;4.45;;;2.70;;
61108;SDS011;46995;55.740;37.402;2023-02-28T16:34:19;5.00;;;3.00;;
61108;SDS011;46995;55.740;37.402;2023-02-28T16:36:46;5.65;;;2.70;;
61108;SDS011;46995;55.740;37.402;2023-02-28T16:39:13;3.75;;;2.55;;
61108;SDS011;46995;55.740;37.402;2023-02-28T16:41:42;5.65;;;2.97;;
61108;SDS011;46995;55.740;37.402;2023-02-28T16:44:11;7.85;;;3.20;;
61108;SDS011;46995;55.740;37.402;2023-02-28T16:46:44;10.32;;;3.20;;
61108;SDS011;46995;55.740;37.402;2023-02-28T16:49:11;5.22;;;2.40;;
61108;SDS011;46995;55.740;37.402;2023-02-28T16:54:04;4.78;;;2.55;;
61108;SDS011;46995;55.740;37.402;2023-02-28T16:56:30;6.80;;;3.08;;
61108;SDS011;46995;55.740;37.402;2023-02-28T16:58:58;5.65;;;2.90;;
61108;SDS011;46995;55.740;37.402;2023-02-28T17:01:27;5.13;;;2.65;;
61108;SDS011;46995;55.740;37.402;2023-02-28T17:03:54;4.75;;;2.60;;
61108;SDS011;46995;55.740;37.402;2023-02-28T17:06:24;4.38;;;2.65;;
61108;SDS011;46995;55.740;37.402;2023-02-28T17:08:54;8.63;;;3.60;;
61108;SDS011;46995;55.740;37.402;2023-02-28T17:11:24;3.78;;;2.58;;
61108;SDS011;46995;55.740;37.402;2023-02-28T17:13:51;6.70;;;3.63;;
61108;SDS011;46995;55.740;37.402;2023-02-28T17:16:24;6.65;;;3.42;;
61108;SDS011;46995;55.740;37.402;2023-02-28T17:19:03;4.28;;;2.13;;
61108;SDS011;46995;55.740;37.402;2023-02-28T17:21:31;2.83;;;1.77;;
61108;SDS011;46995;55.740;37.402;2023-02-28T17:23:58;2.83;;;1.48;;
61108;SDS011;46995;55.740;37.402;2023-02-28T17:26:25;1.80;;;1.23;;
61108;SDS011;46995;55.740;37.402;2023-02-28T17:28:53;2.22;;;1.17;;
61108;SDS011;46995;55.740;37.402;2023-02-28T17:31:24;3.13;;;1.10;;
61108;SDS011;46995;55.740;37.402;2023-02-28T17:33:51;2.35;;;1.42;;
61108;SDS011;46995;55.740;37.402;2023-02-28T17:36:24;2.08;;;1.35;;
61108;SDS011;46995;55.740;37.402;2023-02-28T17:38:52;2.17;;;1.35;;
61108;SDS011;46995;55.740;37.402;2023-02-28T17:41:20;2.47;;;1.40;;
61108;SDS011;46995;55.740;37.402;2023-02-28T17:43:46;2.90;;;1.77;;
61108;SDS011;46995;55.740;37.402;2023-02-28T17:46:16;4.82;;;2.08;;